Terminal Aerodrome Forecast
Issued by NWS Greer, SC

Home | Current Version | Previous Version | Text Only | Print | Product List | Glossary On
Versions: 1 2 3 4 5 6 7 8 9 10 11 12 13 14 15 16
000
FTUS42 KGSP 290532
TAFGSP
TAF
KGSP 290532Z 2906/3006 26005KT P6SM FEW250
     FM291600 26006KT P6SM SCT045
     FM291700 24006KT P6SM BKN040 PROB30 2919/3001 4SM -TSRA
      OVC025CB=

USA.gov is the U.S. government's official web portal to all federal, state and local government web resources and services.